Time;durP1;ratioP1;P1;durP2;ratioP2;P2;SDS_P1;SDS_P2;PMS_P1;PMS_P2;Temp;Humidity;BMP_temperature;BMP_pressure;BME280_temperature;BME280_humidity;BME280_pressure;Samples;Min_cycle;Max_cycle;Signal;HPM_P1;HPM_P2
2022/03/05 00:00:50;;;;;;;2.00;1.90;;;;;;;;;;5119153;27;20242;-71
2022/03/05 00:03:37;;;;;;;2.00;1.90;;;;;;;;;;5120856;27;20683;-72
2022/03/05 00:06:23;;;;;;;2.13;2.03;;;;;;;;;;5115833;27;20215;-71
2022/03/05 00:09:10;;;;;;;2.00;1.90;;;;;;;;;;5121687;27;20230;-71
2022/03/05 00:11:57;;;;;;;2.47;2.00;;;;;;;;;;5120087;27;20712;-71
2022/03/05 00:14:46;;;;;;;2.00;1.90;;;;;;;;;;5117967;27;20293;-71
2022/03/05 00:17:33;;;;;;;1.90;1.80;;;;;;;;;;5119676;27;20744;-72
2022/03/05 00:20:20;;;;;;;1.90;1.80;;;;;;;;;;5119703;27;20696;-71
2022/03/05 00:23:07;;;;;;;1.80;1.70;;;;;;;;;;5118099;27;20316;-71
2022/03/05 00:25:54;;;;;;;1.73;1.63;;;;;;;;;;5120075;27;20208;-71
2022/03/05 00:28:40;;;;;;;2.10;2.00;;;;;;;;;;5118234;27;20203;-71
2022/03/05 00:31:29;;;;;;;1.90;1.80;;;;;;;;;;5118085;27;20203;-71
2022/03/05 00:34:16;;;;;;;1.80;1.70;;;;;;;;;;5114944;27;20363;-71
2022/03/05 00:37:05;;;;;;;1.80;1.70;;;;;;;;;;5118725;27;21050;-71
2022/03/05 00:39:52;;;;;;;1.80;1.70;;;;;;;;;;5118840;27;20346;-71
2022/03/05 00:42:39;;;;;;;1.73;1.63;;;;;;;;;;5115611;28;20377;-71
2022/03/05 00:45:26;;;;;;;1.47;1.47;;;;;;;;;;5118482;28;20214;-71
2022/03/05 00:48:14;;;;;;;1.90;1.80;;;;;;;;;;5123002;28;20274;-71
2022/03/05 00:51:01;;;;;;;1.70;1.60;;;;;;;;;;5120654;28;20283;-72
2022/03/05 00:53:48;;;;;;;1.63;1.53;;;;;;;;;;5120414;28;20268;-72
2022/03/05 00:56:35;;;;;;;1.93;1.70;;;;;;;;;;5115924;28;20254;-72
2022/03/05 00:59:22;;;;;;;1.90;1.80;;;;;;;;;;5117266;28;20203;-71
2022/03/05 01:02:09;;;;;;;1.70;1.60;;;;;;;;;;5118436;28;20298;-71
2022/03/05 01:04:57;;;;;;;1.70;1.60;;;;;;;;;;5118164;28;20211;-72
2022/03/05 01:07:44;;;;;;;1.57;1.50;;;;;;;;;;5122826;27;20294;-71
2022/03/05 01:10:31;;;;;;;1.40;1.40;;;;;;;;;;5123485;27;20238;-71
2022/03/05 01:13:18;;;;;;;1.63;1.53;;;;;;;;;;5124406;27;20202;-71
2022/03/05 01:16:05;;;;;;;1.83;1.73;;;;;;;;;;5120278;27;20200;-71
2022/03/05 01:18:52;;;;;;;1.50;1.40;;;;;;;;;;5120846;27;20706;-71
2022/03/05 01:21:41;;;;;;;1.63;1.53;;;;;;;;;;5126607;27;20578;-72
2022/03/05 01:24:27;;;;;;;1.50;1.50;;;;;;;;;;5124816;27;20765;-71
2022/03/05 01:27:14;;;;;;;1.70;1.60;;;;;;;;;;5123990;27;20600;-71
2022/03/05 01:30:02;;;;;;;1.83;1.73;;;;;;;;;;5123749;27;20726;-71
2022/03/05 01:32:49;;;;;;;1.73;1.67;;;;;;;;;;5122399;27;20220;-71
2022/03/05 01:35:36;;;;;;;1.40;1.40;;;;;;;;;;5124687;27;20691;-70
2022/03/05 01:38:24;;;;;;;1.60;1.50;;;;;;;;;;5122321;27;20314;-71
2022/03/05 01:41:11;;;;;;;1.67;1.57;;;;;;;;;;5117169;27;20576;-71
2022/03/05 01:43:58;;;;;;;1.33;1.33;;;;;;;;;;5121822;27;20625;-71
2022/03/05 01:46:45;;;;;;;1.47;1.47;;;;;;;;;;5116806;27;20250;-71
2022/03/05 01:49:32;;;;;;;1.10;1.10;;;;;;;;;;5120845;27;20213;-71
2022/03/05 01:52:20;;;;;;;1.33;1.30;;;;;;;;;;5119544;27;20710;-71
2022/03/05 01:55:08;;;;;;;1.57;1.53;;;;;;;;;;5121517;27;20348;-71
2022/03/05 01:57:55;;;;;;;1.50;1.43;;;;;;;;;;5116669;27;20871;-71
2022/03/05 02:00:42;;;;;;;1.50;1.50;;;;;;;;;;5119107;27;20251;-71
2022/03/05 02:03:29;;;;;;;1.23;1.23;;;;;;;;;;5124068;27;20208;-71
2022/03/05 02:06:16;;;;;;;1.43;1.43;;;;;;;;;;5123301;27;20624;-71
2022/03/05 02:09:04;;;;;;;1.67;1.43;;;;;;;;;;5119478;27;20253;-71
2022/03/05 02:11:52;;;;;;;1.30;1.30;;;;;;;;;;5122738;27;20691;-71
2022/03/05 02:14:39;;;;;;;1.50;1.40;;;;;;;;;;5121275;27;20204;-71
2022/03/05 02:17:27;;;;;;;1.73;1.63;;;;;;;;;;5123290;27;20227;-71
2022/03/05 02:20:14;;;;;;;1.77;1.70;;;;;;;;;;5125205;27;20294;-71
2022/03/05 02:23:02;;;;;;;1.20;1.20;;;;;;;;;;5120117;27;20202;-71
2022/03/05 02:25:54;;;;;;;1.63;1.53;;;;;;;;;;5124464;27;20207;-71
2022/03/05 02:28:41;;;;;;;1.30;1.30;;;;;;;;;;5122135;27;20212;-71
2022/03/05 02:31:28;;;;;;;1.70;1.47;;;;;;;;;;5124516;27;20310;-71
2022/03/05 02:34:15;;;;;;;1.73;1.63;;;;;;;;;;5121525;27;20220;-71
2022/03/05 02:37:02;;;;;;;1.40;1.30;;;;;;;;;;5122030;27;20316;-71
2022/03/05 02:39:50;;;;;;;1.30;1.30;;;;;;;;;;5126397;27;20272;-71
2022/03/05 02:42:37;;;;;;;1.30;1.20;;;;;;;;;;5118331;27;20297;-71
2022/03/05 02:45:24;;;;;;;1.30;1.30;;;;;;;;;;5119002;27;20233;-71
2022/03/05 02:48:13;;;;;;;1.43;1.30;;;;;;;;;;5120582;27;20710;-71
2022/03/05 02:51:00;;;;;;;1.33;1.33;;;;;;;;;;5120607;27;20235;-71
2022/03/05 02:53:47;;;;;;;1.00;1.00;;;;;;;;;;5120810;27;20782;-71
2022/03/05 02:56:35;;;;;;;1.57;1.47;;;;;;;;;;5118649;27;20206;-71
2022/03/05 02:59:22;;;;;;;1.30;1.20;;;;;;;;;;5119104;27;20294;-71
2022/03/05 03:02:09;;;;;;;1.40;1.30;;;;;;;;;;5126528;27;20213;-71
2022/03/05 03:04:56;;;;;;;0.93;0.93;;;;;;;;;;5121170;27;20211;-71
2022/03/05 03:07:43;;;;;;;1.17;1.17;;;;;;;;;;5117875;27;20289;-71
2022/03/05 03:10:30;;;;;;;1.10;1.10;;;;;;;;;;5121149;27;20214;-71
2022/03/05 03:13:19;;;;;;;1.00;1.00;;;;;;;;;;5122661;27;20290;-71
2022/03/05 03:16:06;;;;;;;1.10;1.10;;;;;;;;;;5119971;27;20614;-71
2022/03/05 03:18:53;;;;;;;1.17;1.17;;;;;;;;;;5123586;27;20223;-71
2022/03/05 03:21:40;;;;;;;1.13;1.13;;;;;;;;;;5116665;27;20241;-70
2022/03/05 03:24:27;;;;;;;1.10;1.10;;;;;;;;;;5120324;27;20340;-71
2022/03/05 03:27:14;;;;;;;1.37;1.27;;;;;;;;;;5118280;27;20300;-71
2022/03/05 03:30:04;;;;;;;1.10;1.10;;;;;;;;;;5115729;27;20248;-71
2022/03/05 03:32:51;;;;;;;1.23;1.13;;;;;;;;;;5120261;27;20211;-71
2022/03/05 03:35:38;;;;;;;1.20;1.20;;;;;;;;;;5118481;27;20198;-71
2022/03/05 03:38:25;;;;;;;0.90;0.90;;;;;;;;;;5126168;27;20278;-71
2022/03/05 03:41:11;;;;;;;1.23;1.13;;;;;;;;;;5120290;27;20203;-71
2022/03/05 03:43:58;;;;;;;1.30;1.20;;;;;;;;;;5116565;27;20297;-71
2022/03/05 03:46:47;;;;;;;1.63;1.23;;;;;;;;;;5123595;27;20626;-71
2022/03/05 03:49:34;;;;;;;1.23;1.23;;;;;;;;;;5118725;27;20251;-72
2022/03/05 03:52:21;;;;;;;0.90;0.90;;;;;;;;;;5120252;27;20229;-71
2022/03/05 03:55:11;;;;;;;1.10;1.00;;;;;;;;;;5118072;27;20206;-71
2022/03/05 03:57:58;;;;;;;1.90;1.10;;;;;;;;;;5119838;27;20230;-70
2022/03/05 04:00:45;;;;;;;1.37;1.30;;;;;;;;;;5117468;27;20302;-71
2022/03/05 04:03:34;;;;;;;1.20;1.10;;;;;;;;;;5121250;27;20298;-71
2022/03/05 04:06:21;;;;;;;1.10;1.10;;;;;;;;;;5120361;27;20305;-71
2022/03/05 04:09:07;;;;;;;1.20;1.20;;;;;;;;;;5120494;27;20277;-71
2022/03/05 04:11:53;;;;;;;1.10;1.10;;;;;;;;;;5119431;27;20247;-71
2022/03/05 04:14:41;;;;;;;1.03;1.03;;;;;;;;;;5116366;27;20298;-71
2022/03/05 04:17:28;;;;;;;0.83;0.83;;;;;;;;;;5117032;27;20275;-71
2022/03/05 04:20:16;;;;;;;0.87;0.80;;;;;;;;;;5121162;27;20287;-71
2022/03/05 04:23:03;;;;;;;1.00;1.00;;;;;;;;;;5119186;27;20286;-71
2022/03/05 04:25:50;;;;;;;0.90;0.90;;;;;;;;;;5119889;27;20289;-71
2022/03/05 04:28:37;;;;;;;1.40;1.30;;;;;;;;;;5118735;27;20210;-71
2022/03/05 04:31:24;;;;;;;1.00;1.00;;;;;;;;;;5120813;27;20357;-71
2022/03/05 04:34:11;;;;;;;0.70;0.70;;;;;;;;;;5122467;27;20386;-70
2022/03/05 04:36:59;;;;;;;1.00;0.80;;;;;;;;;;5116358;27;20207;-71
2022/03/05 04:39:46;;;;;;;1.27;1.20;;;;;;;;;;5120926;27;20269;-71
2022/03/05 04:42:33;;;;;;;1.27;1.20;;;;;;;;;;5114909;28;20320;-71
2022/03/05 04:45:20;;;;;;;1.50;1.30;;;;;;;;;;5113159;28;20283;-71
2022/03/05 04:48:07;;;;;;;0.90;0.90;;;;;;;;;;5118990;28;20258;-71
2022/03/05 04:50:54;;;;;;;1.10;1.10;;;;;;;;;;5118529;28;20664;-71
2022/03/05 04:53:42;;;;;;;1.00;1.00;;;;;;;;;;5120001;28;20263;-71
2022/03/05 04:56:29;;;;;;;1.40;1.30;;;;;;;;;;5118094;28;20228;-71
2022/03/05 04:59:16;;;;;;;1.17;1.17;;;;;;;;;;5120022;28;20232;-71
2022/03/05 05:02:04;;;;;;;1.40;1.30;;;;;;;;;;5116927;28;20256;-71
2022/03/05 05:04:51;;;;;;;1.07;1.07;;;;;;;;;;5122439;28;20302;-71
2022/03/05 05:07:39;;;;;;;1.20;1.20;;;;;;;;;;5117990;28;20333;-71
2022/03/05 05:10:27;;;;;;;1.20;1.20;;;;;;;;;;5119050;28;20268;-71
2022/03/05 05:13:14;;;;;;;1.30;1.30;;;;;;;;;;5113791;28;20288;-71
2022/03/05 05:16:01;;;;;;;1.23;1.13;;;;;;;;;;5118635;28;20214;-71
2022/03/05 05:21:53;;;;;;;1.23;1.17;;;;;;;;;;5118344;28;20210;-71
2022/03/05 05:24:40;;;;;;;1.10;1.10;;;;;;;;;;5120963;28;20330;-71
2022/03/05 05:27:28;;;;;;;1.40;1.30;;;;;;;;;;5119385;28;20345;-71
2022/03/05 05:30:15;;;;;;;1.43;1.33;;;;;;;;;;5118243;28;20233;-71
2022/03/05 05:33:02;;;;;;;1.10;1.10;;;;;;;;;;5115656;28;20291;-71
2022/03/05 05:35:49;;;;;;;1.13;1.13;;;;;;;;;;5118931;28;20195;-71
2022/03/05 05:38:36;;;;;;;1.10;1.10;;;;;;;;;;5120788;28;20693;-71
2022/03/05 05:41:23;;;;;;;1.07;1.07;;;;;;;;;;5120876;28;20560;-71
2022/03/05 05:44:12;;;;;;;1.27;1.20;;;;;;;;;;5118848;28;20220;-71
2022/03/05 05:46:59;;;;;;;1.10;1.10;;;;;;;;;;5118671;28;20234;-71
2022/03/05 05:49:46;;;;;;;1.13;1.13;;;;;;;;;;5116916;28;20302;-71
2022/03/05 05:52:34;;;;;;;0.97;0.97;;;;;;;;;;5120900;27;20250;-71
2022/03/05 05:55:21;;;;;;;1.20;1.10;;;;;;;;;;5119938;27;20302;-71
2022/03/05 05:58:08;;;;;;;1.23;1.13;;;;;;;;;;5121361;27;20219;-71
2022/03/05 06:00:56;;;;;;;1.03;1.03;;;;;;;;;;5121291;27;20207;-71
2022/03/05 06:03:44;;;;;;;1.20;1.13;;;;;;;;;;5121549;27;20205;-71
2022/03/05 06:06:31;;;;;;;0.93;0.93;;;;;;;;;;5120380;27;20804;-71
2022/03/05 06:09:18;;;;;;;1.13;1.10;;;;;;;;;;5120200;27;20205;-71
2022/03/05 06:12:06;;;;;;;1.07;1.07;;;;;;;;;;5122911;27;20678;-71
2022/03/05 06:14:53;;;;;;;1.50;1.10;;;;;;;;;;5121162;27;20301;-71
2022/03/05 06:17:43;;;;;;;1.30;1.20;;;;;;;;;;5119054;27;20720;-71
2022/03/05 06:20:30;;;;;;;1.10;1.10;;;;;;;;;;5117023;27;20285;-71
2022/03/05 06:23:18;;;;;;;1.30;1.30;;;;;;;;;;5123013;27;20214;-71
2022/03/05 06:26:05;;;;;;;1.30;1.20;;;;;;;;;;5124009;27;20874;-71
2022/03/05 06:28:52;;;;;;;1.10;1.10;;;;;;;;;;5121470;27;20618;-71
2022/03/05 06:31:39;;;;;;;1.13;1.13;;;;;;;;;;5120754;27;20217;-71
2022/03/05 06:34:28;;;;;;;1.00;0.90;;;;;;;;;;5120837;27;20685;-71
2022/03/05 06:37:15;;;;;;;1.37;1.13;;;;;;;;;;5117032;27;20566;-71
2022/03/05 06:40:02;;;;;;;0.90;0.90;;;;;;;;;;5123206;27;20236;-71
2022/03/05 06:42:49;;;;;;;1.00;1.00;;;;;;;;;;5123365;27;20335;-71
2022/03/05 06:45:36;;;;;;;1.90;1.20;;;;;;;;;;5117270;27;20274;-71
2022/03/05 06:48:23;;;;;;;1.13;1.13;;;;;;;;;;5121021;27;20578;-71
2022/03/05 06:51:11;;;;;;;1.40;1.30;;;;;;;;;;5121453;27;20282;-71
2022/03/05 06:53:58;;;;;;;1.33;1.23;;;;;;;;;;5120083;27;20216;-71
2022/03/05 06:56:45;;;;;;;1.00;1.00;;;;;;;;;;5123596;27;20214;-71
2022/03/05 06:59:32;;;;;;;1.30;1.20;;;;;;;;;;5113898;27;20235;-71
2022/03/05 07:02:19;;;;;;;1.50;1.40;;;;;;;;;;5121855;27;20690;-71
2022/03/05 07:05:07;;;;;;;1.60;1.50;;;;;;;;;;5115910;27;20493;-72
2022/03/05 07:07:55;;;;;;;1.37;1.37;;;;;;;;;;5119155;27;20211;-72
2022/03/05 07:10:42;;;;;;;1.53;1.43;;;;;;;;;;5121018;27;20209;-72
2022/03/05 07:13:29;;;;;;;1.80;1.70;;;;;;;;;;5118052;27;20204;-71
2022/03/05 07:16:16;;;;;;;1.80;1.70;;;;;;;;;;5118981;27;20592;-71
2022/03/05 07:19:03;;;;;;;1.93;1.83;;;;;;;;;;5118911;27;20225;-72
2022/03/05 07:21:50;;;;;;;2.13;2.03;;;;;;;;;;5120338;27;20210;-71
2022/03/05 07:24:39;;;;;;;2.20;2.10;;;;;;;;;;5124943;27;20787;-71
2022/03/05 07:27:26;;;;;;;2.17;2.07;;;;;;;;;;5119612;27;20284;-72
2022/03/05 07:30:13;;;;;;;2.13;2.03;;;;;;;;;;5118405;27;20286;-71
2022/03/05 07:33:00;;;;;;;2.07;1.97;;;;;;;;;;5118025;27;20209;-72
2022/03/05 07:35:47;;;;;;;2.37;2.20;;;;;;;;;;5118397;27;20277;-69
2022/03/05 07:38:35;;;;;;;2.20;2.10;;;;;;;;;;5117838;27;20287;-70
2022/03/05 07:41:23;;;;;;;2.10;2.00;;;;;;;;;;5118911;27;20574;-69
2022/03/05 07:44:10;;;;;;;2.05;1.95;;;;;;;;;;5120637;27;20213;-70
2022/03/05 07:46:57;;;;;;;2.50;2.40;;;;;;;;;;5118126;27;20748;-71
2022/03/05 07:49:44;;;;;;;2.30;2.20;;;;;;;;;;5116982;27;20205;-70
2022/03/05 07:52:31;;;;;;;2.33;2.22;;;;;;;;;;5120813;27;20354;-70
2022/03/05 07:55:19;;;;;;;2.25;2.15;;;;;;;;;;5118332;27;20248;-70
2022/03/05 07:58:08;;;;;;;2.63;2.47;;;;;;;;;;5118980;27;20215;-71
2022/03/05 08:00:55;;;;;;;2.30;2.20;;;;;;;;;;5119169;27;20209;-70
2022/03/05 08:03:42;;;;;;;2.30;2.20;;;;;;;;;;5116603;27;20586;-70
2022/03/05 08:06:29;;;;;;;2.20;2.10;;;;;;;;;;5118579;27;20693;-70
2022/03/05 08:09:15;;;;;;;2.10;2.00;;;;;;;;;;5121056;27;20601;-70
2022/03/05 08:12:03;;;;;;;2.00;1.90;;;;;;;;;;5117151;27;20211;-71
2022/03/05 08:14:52;;;;;;;2.07;1.97;;;;;;;;;;5119277;27;20281;-71
2022/03/05 08:17:49;;;;;;;2.20;2.10;;;;;;;;;;5121439;27;20207;-70
2022/03/05 08:20:36;;;;;;;2.13;2.00;;;;;;;;;;5121582;27;20304;-70
2022/03/05 08:23:23;;;;;;;2.00;1.90;;;;;;;;;;5115499;27;20213;-70
2022/03/05 08:26:13;;;;;;;1.70;1.60;;;;;;;;;;5122076;27;20775;-70
2022/03/05 08:29:00;;;;;;;1.77;1.73;;;;;;;;;;5116383;27;20197;-70
2022/03/05 08:31:48;;;;;;;1.67;1.67;;;;;;;;;;5118284;27;20202;-71
2022/03/05 08:34:35;;;;;;;2.07;1.97;;;;;;;;;;5114387;27;20204;-71
2022/03/05 08:37:22;;;;;;;1.97;1.87;;;;;;;;;;5120321;27;20295;-70
2022/03/05 08:40:12;;;;;;;2.20;2.00;;;;;;;;;;5116371;27;20243;-71
2022/03/05 08:42:59;;;;;;;1.87;1.77;;;;;;;;;;5114801;27;20607;-71
2022/03/05 08:45:46;;;;;;;2.13;2.03;;;;;;;;;;5116377;28;20212;-71
2022/03/05 08:48:34;;;;;;;1.80;1.70;;;;;;;;;;5117701;28;20687;-71
2022/03/05 08:51:21;;;;;;;1.70;1.60;;;;;;;;;;5120971;28;20199;-71
2022/03/05 08:54:08;;;;;;;1.70;1.60;;;;;;;;;;5116701;28;20340;-71
2022/03/05 08:56:55;;;;;;;1.70;1.60;;;;;;;;;;5116762;28;20694;-71
2022/03/05 08:59:42;;;;;;;1.87;1.77;;;;;;;;;;5117863;28;20214;-71
2022/03/05 09:02:29;;;;;;;1.50;1.40;;;;;;;;;;5117132;28;20298;-71
2022/03/05 09:05:17;;;;;;;1.63;1.53;;;;;;;;;;5117789;28;20232;-71
2022/03/05 09:08:05;;;;;;;1.63;1.53;;;;;;;;;;5116982;28;20245;-71
2022/03/05 09:10:51;;;;;;;1.60;1.50;;;;;;;;;;5118868;28;20202;-70
2022/03/05 09:13:38;;;;;;;1.50;1.50;;;;;;;;;;5114502;28;20271;-71
2022/03/05 09:16:25;;;;;;;1.60;1.50;;;;;;;;;;5115883;28;20289;-71
2022/03/05 09:19:12;;;;;;;2.00;1.90;;;;;;;;;;5117525;28;20540;-71
2022/03/05 09:22:00;;;;;;;2.30;1.60;;;;;;;;;;5117243;28;20612;-71
2022/03/05 09:24:48;;;;;;;1.73;1.63;;;;;;;;;;5114234;28;20282;-71
2022/03/05 09:27:34;;;;;;;2.30;2.10;;;;;;;;;;5117208;27;20213;-70
2022/03/05 09:30:22;;;;;;;2.17;2.00;;;;;;;;;;5123118;27;20256;-70
2022/03/05 09:33:09;;;;;;;2.10;1.90;;;;;;;;;;5123180;27;20290;-71
2022/03/05 09:35:56;;;;;;;1.90;1.80;;;;;;;;;;5120058;27;20331;-71
2022/03/05 09:38:44;;;;;;;2.33;1.93;;;;;;;;;;5124215;27;20206;-70
2022/03/05 09:41:31;;;;;;;1.67;1.57;;;;;;;;;;5122264;27;20343;-70
2022/03/05 09:44:18;;;;;;;1.83;1.73;;;;;;;;;;5122141;27;20589;-70
2022/03/05 09:47:07;;;;;;;1.40;1.40;;;;;;;;;;5121968;27;20295;-70
2022/03/05 09:49:54;;;;;;;2.87;1.63;;;;;;;;;;5120110;27;20332;-70
2022/03/05 09:52:41;;;;;;;2.13;1.70;;;;;;;;;;5122019;27;20225;-70
2022/03/05 09:55:31;;;;;;;1.63;1.53;;;;;;;;;;5119527;27;20288;-70
2022/03/05 09:58:18;;;;;;;1.60;1.50;;;;;;;;;;5117458;27;20231;-70
2022/03/05 10:01:05;;;;;;;1.40;1.30;;;;;;;;;;5124115;27;20363;-70
2022/03/05 10:03:55;;;;;;;1.77;1.63;;;;;;;;;;5125903;27;20202;-70
2022/03/05 10:06:42;;;;;;;1.60;1.50;;;;;;;;;;5121519;27;20306;-70
2022/03/05 10:09:29;;;;;;;2.53;1.20;;;;;;;;;;5122103;27;20718;-70
2022/03/05 10:12:31;;;;;;;2.10;1.30;;;;;;;;;;5121489;27;20553;-70
2022/03/05 10:15:20;;;;;;;1.47;1.03;;;;;;;;;;5120246;27;20226;-70
2022/03/05 10:18:07;;;;;;;1.50;1.40;;;;;;;;;;5122739;27;20211;-70
2022/03/05 10:20:54;;;;;;;1.60;1.47;;;;;;;;;;5120128;27;20742;-69
2022/03/05 10:23:47;;;;;;;1.20;1.20;;;;;;;;;;5119583;27;20284;-70
2022/03/05 10:26:51;;;;;;;1.90;1.40;;;;;;;;;;5119350;27;20273;-70
2022/03/05 10:29:39;;;;;;;2.03;1.57;;;;;;;;;;5126174;27;20691;-70
2022/03/05 10:32:28;;;;;;;1.43;1.33;;;;;;;;;;5116425;27;21099;-71
2022/03/05 10:35:19;;;;;;;1.23;1.13;;;;;;;;;;5122313;27;20221;-72
2022/03/05 10:38:06;;;;;;;1.60;1.50;;;;;;;;;;5115327;27;20239;-71
2022/03/05 10:40:55;;;;;;;1.50;1.40;;;;;;;;;;5117665;27;20255;-71
2022/03/05 10:43:42;;;;;;;1.60;1.50;;;;;;;;;;5117145;27;20248;-71
2022/03/05 10:46:39;;;;;;;2.07;1.60;;;;;;;;;;5116806;27;20645;-71
2022/03/05 10:49:27;;;;;;;1.60;1.30;;;;;;;;;;5121409;27;20215;-71
2022/03/05 10:52:14;;;;;;;1.50;1.40;;;;;;;;;;5117224;27;20258;-71
2022/03/05 10:55:15;;;;;;;2.07;1.43;;;;;;;;;;5121208;27;20204;-71
2022/03/05 10:58:05;;;;;;;1.33;1.23;;;;;;;;;;5118810;27;20247;-70
2022/03/05 11:00:53;;;;;;;1.30;1.20;;;;;;;;;;5118837;27;21134;-71
2022/03/05 11:03:43;;;;;;;1.10;1.10;;;;;;;;;;5122055;27;20209;-71
2022/03/05 11:06:30;;;;;;;1.07;0.90;;;;;;;;;;5118057;27;20209;-71
2022/03/05 11:09:17;;;;;;;1.07;0.97;;;;;;;;;;5120077;27;20201;-72
2022/03/05 11:12:07;;;;;;;1.87;0.80;;;;;;;;;;5119440;27;20206;-71
2022/03/05 11:14:54;;;;;;;1.73;1.17;;;;;;;;;;5121000;27;20213;-71
2022/03/05 11:17:41;;;;;;;2.40;1.23;;;;;;;;;;5115325;27;20317;-71
2022/03/05 11:20:29;;;;;;;1.00;1.00;;;;;;;;;;5118703;27;20223;-71
2022/03/05 11:23:17;;;;;;;1.23;1.13;;;;;;;;;;5119371;27;20232;-71
2022/03/05 11:26:07;;;;;;;1.17;0.87;;;;;;;;;;5119013;27;20582;-71
2022/03/05 11:28:53;;;;;;;1.20;1.10;;;;;;;;;;5118147;27;20259;-71
2022/03/05 11:31:40;;;;;;;1.40;1.00;;;;;;;;;;5122336;27;20239;-71
2022/03/05 11:34:29;;;;;;;1.13;0.90;;;;;;;;;;5119382;27;20218;-70
2022/03/05 11:37:24;;;;;;;1.90;1.10;;;;;;;;;;5117579;27;20235;-71
2022/03/05 11:40:32;;;;;;;1.00;0.93;;;;;;;;;;5119744;27;20305;-71
2022/03/05 11:43:21;;;;;;;1.23;1.10;;;;;;;;;;5120039;27;20344;-71
2022/03/05 11:46:08;;;;;;;0.90;0.90;;;;;;;;;;5118356;27;20353;-71
2022/03/05 11:49:02;;;;;;;0.80;0.80;;;;;;;;;;5120017;27;20657;-71
2022/03/05 11:51:56;;;;;;;1.13;0.90;;;;;;;;;;5117409;27;20709;-71
2022/03/05 11:55:13;;;;;;;0.60;0.60;;;;;;;;;;5116857;27;20206;-71
2022/03/05 11:58:30;;;;;;;1.10;0.87;;;;;;;;;;5117986;27;20208;-71
2022/03/05 12:01:51;;;;;;;0.63;0.63;;;;;;;;;;5119186;27;20307;-71
2022/03/05 12:04:46;;;;;;;0.77;0.77;;;;;;;;;;5117776;27;20678;-71
2022/03/05 12:07:36;;;;;;;1.07;0.80;;;;;;;;;;5120965;27;20211;-71
2022/03/05 12:10:23;;;;;;;1.50;0.90;;;;;;;;;;5119585;27;20211;-71
2022/03/05 12:13:17;;;;;;;1.07;0.73;;;;;;;;;;5116292;27;20231;-71
2022/03/05 12:16:14;;;;;;;0.80;0.80;;;;;;;;;;5118676;27;20669;-70
2022/03/05 12:19:01;;;;;;;0.70;0.70;;;;;;;;;;5119355;27;20635;-70
2022/03/05 12:21:50;;;;;;;0.70;0.70;;;;;;;;;;5119158;27;20222;-70
2022/03/05 12:24:37;;;;;;;0.67;0.67;;;;;;;;;;5120324;27;20200;-71
2022/03/05 12:27:29;;;;;;;0.80;0.70;;;;;;;;;;5120009;27;20293;-71
2022/03/05 12:30:16;;;;;;;1.13;0.83;;;;;;;;;;5113434;27;20619;-70
2022/03/05 12:33:08;;;;;;;0.60;0.60;;;;;;;;;;5122346;27;20209;-70
2022/03/05 12:35:57;;;;;;;1.13;0.80;;;;;;;;;;5119655;27;20285;-70
2022/03/05 12:38:44;;;;;;;0.60;0.60;;;;;;;;;;5112299;27;20681;-70
2022/03/05 12:41:31;;;;;;;1.00;0.83;;;;;;;;;;5118545;27;20301;-70
2022/03/05 12:44:18;;;;;;;0.67;0.67;;;;;;;;;;5119747;27;20287;-70
2022/03/05 12:47:05;;;;;;;1.80;0.67;;;;;;;;;;5116068;27;20239;-70
2022/03/05 12:49:54;;;;;;;1.37;0.70;;;;;;;;;;5118570;28;20696;-71
2022/03/05 12:52:53;;;;;;;0.93;0.80;;;;;;;;;;5115361;28;20258;-70
2022/03/05 12:55:42;;;;;;;0.70;0.70;;;;;;;;;;5119481;28;20670;-70
2022/03/05 12:58:31;;;;;;;0.67;0.67;;;;;;;;;;5119329;28;20736;-70
2022/03/05 13:01:18;;;;;;;0.60;0.60;;;;;;;;;;5115707;28;20378;-70
2022/03/05 13:04:05;;;;;;;0.73;0.70;;;;;;;;;;5122116;27;20207;-71
2022/03/05 13:06:56;;;;;;;0.97;0.90;;;;;;;;;;5124182;27;20264;-71
2022/03/05 13:09:43;;;;;;;1.33;0.97;;;;;;;;;;5122346;27;20203;-71
2022/03/05 13:12:36;;;;;;;1.40;0.80;;;;;;;;;;5124984;27;20243;-70
2022/03/05 13:15:26;;;;;;;1.00;0.93;;;;;;;;;;5123345;27;20655;-70
2022/03/05 13:18:15;;;;;;;0.90;0.90;;;;;;;;;;5123066;27;20297;-70
2022/03/05 13:21:05;;;;;;;0.83;0.83;;;;;;;;;;5125632;27;20651;-70
2022/03/05 13:23:54;;;;;;;0.60;0.60;;;;;;;;;;5124070;27;20662;-71
2022/03/05 13:26:45;;;;;;;2.30;0.80;;;;;;;;;;5120281;27;20203;-71
2022/03/05 13:29:32;;;;;;;0.70;0.70;;;;;;;;;;5121468;27;20290;-71
2022/03/05 13:32:19;;;;;;;0.77;0.77;;;;;;;;;;5124793;27;20213;-71
2022/03/05 13:35:07;;;;;;;0.60;0.60;;;;;;;;;;5123234;27;20633;-71
2022/03/05 13:37:55;;;;;;;1.70;0.80;;;;;;;;;;5121653;27;20263;-71
2022/03/05 13:40:44;;;;;;;0.60;0.60;;;;;;;;;;5124510;27;20261;-71
2022/03/05 13:43:35;;;;;;;1.37;1.00;;;;;;;;;;5121811;27;20238;-71
2022/03/05 13:46:22;;;;;;;0.53;0.53;;;;;;;;;;5123025;27;20297;-71
2022/03/05 13:49:09;;;;;;;0.73;0.73;;;;;;;;;;5123076;27;20281;-72
2022/03/05 13:51:58;;;;;;;0.80;0.80;;;;;;;;;;5118021;27;20262;-71
2022/03/05 13:54:48;;;;;;;0.70;0.70;;;;;;;;;;5123260;27;20548;-71
2022/03/05 13:57:38;;;;;;;0.80;0.80;;;;;;;;;;5121248;27;20747;-71
2022/03/05 14:00:27;;;;;;;1.00;1.00;;;;;;;;;;5123039;27;20305;-71
2022/03/05 14:03:17;;;;;;;0.87;0.87;;;;;;;;;;5121879;27;20296;-71
2022/03/05 14:06:11;;;;;;;1.33;1.23;;;;;;;;;;5120258;27;20202;-71
2022/03/05 14:09:00;;;;;;;1.20;1.20;;;;;;;;;;5124812;27;20209;-71
2022/03/05 14:11:47;;;;;;;1.27;1.17;;;;;;;;;;5123447;27;20249;-70
2022/03/05 14:14:37;;;;;;;0.93;0.93;;;;;;;;;;5124127;27;20799;-71
2022/03/05 14:17:27;;;;;;;1.20;1.20;;;;;;;;;;5121246;27;20347;-71
2022/03/05 14:20:16;;;;;;;1.90;1.07;;;;;;;;;;5121182;27;20254;-71
2022/03/05 14:23:06;;;;;;;1.30;1.00;;;;;;;;;;5120632;27;20201;-71
2022/03/05 14:25:54;;;;;;;0.97;0.97;;;;;;;;;;5123130;27;20204;-71
2022/03/05 14:28:41;;;;;;;1.33;1.23;;;;;;;;;;5122854;27;20318;-72
2022/03/05 14:31:30;;;;;;;1.10;1.00;;;;;;;;;;5121042;27;20262;-71
2022/03/05 14:34:19;;;;;;;1.00;1.00;;;;;;;;;;5121890;27;20278;-71
2022/03/05 14:37:06;;;;;;;0.93;0.83;;;;;;;;;;5119460;27;20358;-71
2022/03/05 14:39:53;;;;;;;1.03;0.93;;;;;;;;;;5120761;27;20213;-71
2022/03/05 14:42:41;;;;;;;1.13;1.03;;;;;;;;;;5118021;27;20264;-71
2022/03/05 14:45:28;;;;;;;1.00;0.90;;;;;;;;;;5122265;27;20258;-72
2022/03/05 14:48:16;;;;;;;1.20;1.10;;;;;;;;;;5114305;27;20229;-71
2022/03/05 14:51:03;;;;;;;0.87;0.87;;;;;;;;;;5122319;27;20684;-72
2022/03/05 14:53:50;;;;;;;1.20;1.10;;;;;;;;;;5125430;27;20225;-71
2022/03/05 14:56:38;;;;;;;1.20;1.07;;;;;;;;;;5122190;27;20641;-71
2022/03/05 14:59:26;;;;;;;1.20;1.17;;;;;;;;;;5120520;27;20293;-72
2022/03/05 15:02:13;;;;;;;0.80;0.80;;;;;;;;;;5120943;27;20226;-71
2022/03/05 15:05:02;;;;;;;0.83;0.83;;;;;;;;;;5119288;27;20270;-71
2022/03/05 15:07:49;;;;;;;0.83;0.83;;;;;;;;;;5120768;27;20205;-72
2022/03/05 15:10:36;;;;;;;0.90;0.87;;;;;;;;;;5120665;27;20246;-71
2022/03/05 15:13:23;;;;;;;1.43;0.70;;;;;;;;;;5120714;27;20216;-72
2022/03/05 15:16:09;;;;;;;0.80;0.80;;;;;;;;;;5118241;27;20209;-72
2022/03/05 15:18:57;;;;;;;1.77;0.80;;;;;;;;;;5119301;27;20236;-71
2022/03/05 15:21:45;;;;;;;0.60;0.60;;;;;;;;;;5118915;27;20332;-70
2022/03/05 15:24:32;;;;;;;1.00;0.90;;;;;;;;;;5119902;27;20691;-71
2022/03/05 15:27:19;;;;;;;1.37;1.00;;;;;;;;;;5119729;27;20243;-72
2022/03/05 15:30:08;;;;;;;1.33;0.90;;;;;;;;;;5119557;27;20201;-72
2022/03/05 15:32:55;;;;;;;0.70;0.70;;;;;;;;;;5120410;27;20288;-71
2022/03/05 15:35:43;;;;;;;1.03;0.90;;;;;;;;;;5118350;27;20198;-72
2022/03/05 15:38:31;;;;;;;0.80;0.80;;;;;;;;;;5121051;27;20674;-72
2022/03/05 15:41:18;;;;;;;1.40;0.90;;;;;;;;;;5119633;27;20276;-71
2022/03/05 15:44:06;;;;;;;1.47;1.37;;;;;;;;;;5120316;27;20217;-71
2022/03/05 15:46:53;;;;;;;1.10;1.10;;;;;;;;;;5117678;27;20278;-71
2022/03/05 15:49:41;;;;;;;1.30;1.20;;;;;;;;;;5120696;27;20281;-71
2022/03/05 15:52:28;;;;;;;1.07;1.07;;;;;;;;;;5116169;27;20594;-71
2022/03/05 15:55:16;;;;;;;1.13;1.13;;;;;;;;;;5119996;27;20407;-70
2022/03/05 15:58:04;;;;;;;1.30;1.20;;;;;;;;;;5116751;27;20212;-71
2022/03/05 16:00:51;;;;;;;1.40;1.30;;;;;;;;;;5118317;27;20208;-72
2022/03/05 16:03:38;;;;;;;1.13;1.13;;;;;;;;;;5118080;27;20302;-71
2022/03/05 16:06:25;;;;;;;1.20;1.10;;;;;;;;;;5125563;27;20694;-71
2022/03/05 16:09:12;;;;;;;1.27;1.27;;;;;;;;;;5116122;27;20682;-72
2022/03/05 16:12:00;;;;;;;1.70;1.10;;;;;;;;;;5120661;27;20668;-72
2022/03/05 16:14:47;;;;;;;1.23;1.13;;;;;;;;;;5117130;27;20273;-71
2022/03/05 16:17:34;;;;;;;1.90;1.30;;;;;;;;;;5117852;27;20211;-71
2022/03/05 16:20:21;;;;;;;1.10;1.00;;;;;;;;;;5119119;27;20298;-71
2022/03/05 16:23:08;;;;;;;1.33;1.23;;;;;;;;;;5119943;27;20283;-71
2022/03/05 16:25:55;;;;;;;1.37;1.00;;;;;;;;;;5114796;27;20236;-70
2022/03/05 16:28:45;;;;;;;1.60;1.30;;;;;;;;;;5122667;27;20213;-71
2022/03/05 16:31:32;;;;;;;0.70;0.70;;;;;;;;;;5117716;27;20194;-71
2022/03/05 16:34:24;;;;;;;1.30;1.00;;;;;;;;;;5117643;27;20347;-71
2022/03/05 16:37:11;;;;;;;1.27;0.93;;;;;;;;;;5117054;27;20739;-71
2022/03/05 16:39:58;;;;;;;0.80;0.80;;;;;;;;;;5120854;27;20217;-70
2022/03/05 16:42:46;;;;;;;2.40;0.90;;;;;;;;;;5116267;27;20281;-71
2022/03/05 16:45:34;;;;;;;1.17;1.17;;;;;;;;;;5118056;27;20197;-71
2022/03/05 16:48:22;;;;;;;1.13;1.07;;;;;;;;;;5120421;28;20202;-70
2022/03/05 16:51:08;;;;;;;1.17;1.07;;;;;;;;;;5118335;27;20291;-71